Time;durP1;ratioP1;P1;durP2;ratioP2;P2;SDS_P1;SDS_P2;PMS_P1;PMS_P2;Temp;Humidity;BMP_temperature;BMP_pressure;BME280_temperature;BME280_humidity;BME280_pressure;Samples;Min_cycle;Max_cycle;Signal;HPM_P1;HPM_P2
2022/08/05 00:00:22;;;;;;;2.87;2.67;;;29.00;98.50;;;;;;5056312;28;20565;-77
2022/08/05 00:02:54;;;;;;;2.50;2.30;;;29.00;97.10;;;;;;5059970;28;20550;-76
2022/08/05 00:05:23;;;;;;;3.53;3.23;;;29.00;96.90;;;;;;5055487;28;20453;-77
2022/08/05 00:08:11;;;;;;;3.17;2.97;;;29.00;96.60;;;;;;5060712;28;20581;-77
2022/08/05 00:10:59;;;;;;;2.80;2.60;;;29.00;97.40;;;;;;5059374;28;20506;-77
2022/08/05 00:13:31;;;;;;;3.17;2.97;;;28.90;96.40;;;;;;5056782;28;20443;-77
2022/08/05 00:16:09;;;;;;;3.73;3.43;;;28.90;96.50;;;;;;5058657;28;20490;-78
2022/08/05 00:18:42;;;;;;;2.83;2.63;;;28.90;97.10;;;;;;5057497;28;20480;-77
2022/08/05 00:21:12;;;;;;;4.00;3.40;;;28.90;96.20;;;;;;5059164;28;20540;-77
2022/08/05 00:23:42;;;;;;;3.97;2.87;;;28.80;96.40;;;;;;5056154;28;20531;-77
2022/08/05 00:26:20;;;;;;;4.00;2.70;;;28.70;95.90;;;;;;5058704;28;20453;-77
2022/08/05 00:28:49;;;;;;;4.30;2.70;;;28.70;95.20;;;;;;5058511;28;20512;-76
2022/08/05 00:31:18;;;;;;;2.70;2.27;;;28.70;95.60;;;;;;5059910;28;20461;-77
2022/08/05 00:34:07;;;;;;;2.40;2.30;;;28.70;96.50;;;;;;5054326;28;20455;-77
2022/08/05 00:36:55;;;;;;;3.87;2.30;;;28.70;95.80;;;;;;5059667;28;20568;-77
2022/08/05 00:39:42;;;;;;;2.70;2.50;;;28.70;95.40;;;;;;5058332;28;20848;-76
2022/08/05 00:42:31;;;;;;;3.53;3.27;;;28.60;94.90;;;;;;5059697;28;20539;-77
2022/08/05 00:45:00;;;;;;;4.80;2.53;;;28.60;94.60;;;;;;5060936;28;22127;-77
2022/08/05 00:47:28;;;;;;;3.23;2.90;;;28.60;95.20;;;;;;5061227;28;20477;-77
2022/08/05 00:50:18;;;;;;;2.50;2.37;;;28.50;95.60;;;;;;5061441;28;20484;-77
2022/08/05 00:52:48;;;;;;;2.93;2.37;;;28.50;95.70;;;;;;5059585;28;21239;-77
2022/08/05 00:55:16;;;;;;;3.83;2.70;;;28.50;95.40;;;;;;5062709;28;20506;-77
2022/08/05 00:57:45;;;;;;;2.97;2.67;;;28.50;95.00;;;;;;5062814;28;20485;-77
2022/08/05 01:00:27;;;;;;;3.23;2.93;;;28.40;95.40;;;;;;5060997;28;20491;-77
2022/08/05 01:02:56;;;;;;;2.47;2.23;;;28.40;94.40;;;;;;5062181;28;20463;-77
2022/08/05 01:05:28;;;;;;;2.90;2.33;;;28.40;94.60;;;;;;5062420;28;20447;-77
2022/08/05 01:07:56;;;;;;;2.87;2.67;;;28.40;95.10;;;;;;5062079;28;20497;-77
2022/08/05 01:10:48;;;;;;;3.10;2.70;;;28.30;94.80;;;;;;5062734;28;20489;-79
2022/08/05 01:13:24;;;;;;;5.67;2.50;;;28.30;94.40;;;;;;5063486;28;21247;-76
2022/08/05 01:16:18;;;;;;;3.00;2.27;;;28.20;92.40;;;;;;5060337;28;20455;-78
2022/08/05 01:18:58;;;;;;;6.00;2.50;;;28.20;91.80;;;;;;5061520;28;20480;-78
2022/08/05 01:21:57;;;;;;;2.67;2.43;;;28.20;91.10;;;;;;5062814;28;20460;-76
2022/08/05 01:24:59;;;;;;;2.40;2.13;;;28.20;90.60;;;;;;5061731;28;20549;-76
2022/08/05 01:27:48;;;;;;;2.50;2.37;;;28.20;90.50;;;;;;5052811;28;20454;-76
2022/08/05 01:30:24;;;;;;;2.20;2.10;;;28.30;89.60;;;;;;5059012;28;20545;-77
2022/08/05 01:33:04;;;;;;;3.83;2.40;;;28.30;90.20;;;;;;5061291;28;20481;-77
2022/08/05 01:35:34;;;;;;;2.73;2.50;;;28.30;90.50;;;;;;5062120;28;20551;-77
2022/08/05 01:38:22;;;;;;;2.07;1.87;;;28.30;90.20;;;;;;5063428;28;20513;-77
2022/08/05 01:40:58;;;;;;;2.70;2.20;;;28.30;99.30;;;;;;5062126;28;20482;-76
2022/08/05 01:43:28;;;;;;;1.77;1.67;;;28.30;90.80;;;;;;5061307;28;20866;-77
2022/08/05 01:45:58;;;;;;;2.20;2.00;;;28.30;91.30;;;;;;5061358;28;20466;-76
2022/08/05 01:48:45;;;;;;;2.03;1.80;;;28.40;99.50;;;;;;5062229;28;20458;-76
2022/08/05 01:51:18;;;;;;;2.43;2.20;;;28.40;91.60;;;;;;5061131;28;20550;-77
2022/08/05 01:53:49;;;;;;;1.80;1.70;;;28.40;92.20;;;;;;5059100;28;20458;-78
2022/08/05 01:56:29;;;;;;;3.93;1.80;;;28.40;92.60;;;;;;5062392;28;20442;-77
2022/08/05 01:59:21;;;;;;;2.50;1.70;;;28.40;92.30;;;;;;5057367;28;20467;-77
2022/08/05 02:01:54;;;;;;;1.97;1.80;;;28.40;92.70;;;;;;5059073;28;20826;-77
2022/08/05 02:04:27;;;;;;;1.53;1.43;;;28.40;92.50;;;;;;5058990;28;20450;-77
2022/08/05 02:06:58;;;;;;;3.83;2.23;;;28.40;92.90;;;;;;5060739;28;20448;-77
2022/08/05 02:09:30;;;;;;;3.03;1.93;;;28.40;92.80;;;;;;5062149;28;20514;-78
2022/08/05 02:12:06;;;;;;;4.80;1.70;;;28.40;94.10;;;;;;5062412;28;21014;-77
2022/08/05 02:14:44;;;;;;;3.27;1.57;;;28.50;93.30;;;;;;5060473;28;20447;-77
2022/08/05 02:17:23;;;;;;;2.67;2.00;;;28.50;94.40;;;;;;5060213;28;20478;-78
2022/08/05 02:20:16;;;;;;;4.30;1.80;;;28.50;93.40;;;;;;5061312;28;20531;-77
2022/08/05 02:22:55;;;;;;;2.60;1.77;;;28.40;93.10;;;;;;5060712;28;20446;-77
2022/08/05 02:25:27;;;;;;;1.83;1.73;;;28.50;93.40;;;;;;5060845;28;21386;-77
2022/08/05 02:28:02;;;;;;;2.00;1.83;;;28.50;99.10;;;;;;5062187;28;20447;-77
2022/08/05 02:30:41;;;;;;;2.03;1.60;;;28.50;94.20;;;;;;5064306;28;20481;-77
2022/08/05 02:33:22;;;;;;;1.80;1.70;;;28.40;94.00;;;;;;5057468;28;20512;-76
2022/08/05 02:36:06;;;;;;;3.93;1.70;;;28.40;94.30;;;;;;5060278;28;20574;-77
2022/08/05 02:38:37;;;;;;;2.20;1.90;;;28.40;94.50;;;;;;5061390;28;20510;-77
2022/08/05 02:41:08;;;;;;;1.73;1.63;;;28.40;95.00;;;;;;5060933;28;20478;-77
2022/08/05 02:43:47;;;;;;;2.77;2.13;;;28.30;94.30;;;;;;5060205;28;20455;-77
2022/08/05 02:46:38;;;;;;;2.80;1.97;;;28.30;94.60;;;;;;5060699;28;20453;-77
2022/08/05 02:49:29;;;;;;;2.27;2.07;;;28.30;94.50;;;;;;5059178;28;21247;-76
2022/08/05 02:52:07;;;;;;;4.23;2.43;;;28.30;94.30;;;;;;5059277;28;20438;-76
2022/08/05 02:54:38;;;;;;;3.47;2.30;;;28.30;94.40;;;;;;5060940;28;20482;-77
2022/08/05 02:57:11;;;;;;;2.37;2.17;;;28.30;94.20;;;;;;5059323;28;20529;-78
2022/08/05 02:59:59;;;;;;;3.83;1.83;;;28.30;95.70;;;;;;5056675;28;20557;-78
2022/08/05 03:02:34;;;;;;;3.20;2.10;;;28.20;95.30;;;;;;5058925;28;20550;-77
2022/08/05 03:05:03;;;;;;;1.60;1.50;;;28.20;95.10;;;;;;5060841;28;22002;-77
2022/08/05 03:07:33;;;;;;;4.60;2.63;;;28.20;96.60;;;;;;5060492;28;20439;-78
2022/08/05 03:10:23;;;;;;;2.37;1.83;;;28.20;99.90;;;;;;5059551;28;20597;-76
2022/08/05 03:12:52;;;;;;;8.70;2.70;;;28.20;95.60;;;;;;5058421;28;20461;-77
2022/08/05 03:15:21;;;;;;;2.30;2.10;;;28.20;95.50;;;;;;5060413;28;20458;-77
2022/08/05 03:17:53;;;;;;;2.30;1.70;;;28.20;96.60;;;;;;5060166;28;20498;-77
2022/08/05 03:20:23;;;;;;;3.30;1.97;;;28.20;96.20;;;;;;5060561;28;20497;-77
2022/08/05 03:22:52;;;;;;;5.07;2.20;;;28.20;96.40;;;;;;5059097;28;21015;-77
2022/08/05 03:25:25;;;;;;;3.43;2.10;;;28.20;96.70;;;;;;5060059;28;20451;-80
2022/08/05 03:28:14;;;;;;;2.73;2.23;;;28.20;96.10;;;;;;5061093;28;20530;-77
2022/08/05 03:30:48;;;;;;;2.87;2.03;;;28.20;96.10;;;;;;5060732;28;20490;-77
2022/08/05 03:33:17;;;;;;;2.53;2.13;;;28.10;95.80;;;;;;5060880;28;20455;-77
2022/08/05 03:35:47;;;;;;;2.73;2.20;;;28.10;96.60;;;;;;5060222;28;20451;-77
2022/08/05 03:38:17;;;;;;;3.03;2.50;;;28.10;95.50;;;;;;5061647;28;20470;-77
2022/08/05 03:41:00;;;;;;;2.70;2.50;;;28.10;95.50;;;;;;5057519;28;20474;-77
2022/08/05 03:43:36;;;;;;;5.30;2.70;;;28.00;95.80;;;;;;5058616;28;20454;-78
2022/08/05 03:46:24;;;;;;;3.33;2.80;;;28.00;94.60;;;;;;5057702;28;20572;-77
2022/08/05 03:48:58;;;;;;;4.20;2.33;;;27.90;95.30;;;;;;5059345;28;20443;-77
2022/08/05 03:51:32;;;;;;;4.00;2.87;;;27.90;94.90;;;;;;5058635;28;20508;-77
2022/08/05 03:54:30;;;;;;;2.93;2.10;;;27.90;94.50;;;;;;5059915;28;20528;-75
2022/08/05 03:57:21;;;;;;;3.33;2.00;;;27.90;94.50;;;;;;5059275;28;20503;-77
2022/08/05 04:00:12;;;;;;;2.40;2.20;;;27.90;94.80;;;;;;5049979;28;20489;-77
2022/08/05 04:02:45;;;;;;;2.63;2.43;;;27.90;95.20;;;;;;5056495;28;20509;-77
2022/08/05 04:05:30;;;;;;;9.20;2.63;;;27.90;95.70;;;;;;5057319;28;21164;-77
2022/08/05 04:08:02;;;;;;;3.47;2.70;;;27.90;96.80;;;;;;5057700;28;20438;-76
2022/08/05 04:10:43;;;;;;;4.97;2.10;;;27.90;96.60;;;;;;5057215;28;20465;-77
2022/08/05 04:13:11;;;;;;;4.13;2.43;;;27.80;95.60;;;;;;5059979;28;20450;-76
2022/08/05 04:15:40;;;;;;;3.50;1.97;;;27.60;96.70;;;;;;5058047;28;20454;-76
2022/08/05 04:18:29;;;;;;;2.70;2.30;;;27.60;96.30;;;;;;5059176;28;20575;-76
2022/08/05 04:20:58;;;;;;;4.10;2.13;;;27.60;96.60;;;;;;5054418;28;21473;-76
2022/08/05 04:23:29;;;;;;;2.30;1.87;;;27.60;96.50;;;;;;5060243;28;20454;-77
2022/08/05 04:26:17;;;;;;;2.13;2.03;;;27.60;95.40;;;;;;5057394;28;20465;-78
2022/08/05 04:28:45;;;;;;;3.40;2.30;;;27.60;96.50;;;;;;5058947;28;20442;-77
2022/08/05 04:31:19;;;;;;;4.07;2.10;;;27.60;96.50;;;;;;5054500;28;20470;-76
2022/08/05 04:33:47;;;;;;;4.37;2.23;;;27.60;99.90;;;;;;5059618;28;20470;-77
2022/08/05 04:36:37;;;;;;;3.70;2.67;;;27.60;96.70;;;;;;5061001;28;20516;-78
2022/08/05 04:39:17;;;;;;;4.97;2.03;;;27.50;97.50;;;;;;5060627;28;20576;-77
2022/08/05 04:41:46;;;;;;;3.17;2.37;;;27.50;97.30;;;;;;5059875;28;20453;-76
2022/08/05 04:44:15;;;;;;;4.50;2.47;;;27.50;96.90;;;;;;5056396;28;21761;-77
2022/08/05 04:46:57;;;;;;;2.47;1.90;;;27.50;96.90;;;;;;5058132;28;20445;-78
2022/08/05 04:49:25;;;;;;;2.27;2.07;;;27.40;97.60;;;;;;5055788;28;20482;-78
2022/08/05 04:52:15;;;;;;;2.03;1.83;;;27.40;97.80;;;;;;5061421;28;20462;-77
2022/08/05 04:54:43;;;;;;;3.47;2.20;;;27.40;97.70;;;;;;5060896;28;20879;-77
2022/08/05 04:57:11;;;;;;;3.70;2.47;;;27.40;97.60;;;;;;5058038;28;20528;-77
2022/08/05 04:59:39;;;;;;;3.43;2.20;;;27.40;96.00;;;;;;5054344;28;20493;-76
2022/08/05 05:02:08;;;;;;;2.53;2.30;;;27.40;96.60;;;;;;5055534;28;20451;-77
2022/08/05 05:04:56;;;;;;;2.83;1.90;;;27.40;94.70;;;;;;5058407;28;20465;-77
2022/08/05 05:07:32;;;;;;;2.43;2.33;;;27.40;95.40;;;;;;5056125;28;21064;-77
2022/08/05 05:10:05;;;;;;;4.27;2.80;;;27.40;94.60;;;;;;5054163;28;20480;-78
2022/08/05 05:12:33;;;;;;;2.57;2.20;;;27.30;95.10;;;;;;5059197;28;20457;-77
2022/08/05 05:15:04;;;;;;;3.27;2.67;;;27.40;96.90;;;;;;5056488;28;20447;-76
2022/08/05 05:17:38;;;;;;;2.37;2.27;;;27.40;96.00;;;;;;5057121;28;20553;-77
2022/08/05 05:20:24;;;;;;;3.07;2.70;;;27.40;96.80;;;;;;5053741;28;20501;-77
2022/08/05 05:22:57;;;;;;;2.93;2.60;;;27.50;98.40;;;;;;5059678;28;21091;-77
2022/08/05 05:25:25;;;;;;;2.90;2.30;;;27.50;98.50;;;;;;5055588;28;20465;-77
2022/08/05 05:28:08;;;;;;;2.77;2.57;;;27.50;99.10;;;;;;5057933;28;20825;-78
2022/08/05 05:30:36;;;;;;;3.10;2.83;;;27.50;99.00;;;;;;5059393;28;20488;-76
2022/08/05 05:33:07;;;;;;;2.83;2.63;;;27.50;99.20;;;;;;5061286;28;20454;-77
2022/08/05 05:35:44;;;;;;;3.40;3.10;;;27.60;99.40;;;;;;5062122;28;21531;-76
2022/08/05 05:38:14;;;;;;;3.30;3.00;;;27.60;99.60;;;;;;5059407;28;20491;-77
2022/08/05 05:40:55;;;;;;;7.60;3.10;;;27.60;99.90;;;;;;5056278;28;20485;-76
2022/08/05 05:43:24;;;;;;;3.50;3.27;;;27.70;99.90;;;;;;5060553;28;20466;-77
2022/08/05 05:46:12;;;;;;;3.10;2.33;;;27.70;99.90;;;;;;5057392;28;20469;-77
2022/08/05 05:48:47;;;;;;;4.23;2.60;;;27.70;99.90;;;;;;5060443;28;21049;-77
2022/08/05 05:51:23;;;;;;;8.17;2.93;;;27.70;99.90;;;;;;5055001;28;20486;-77
2022/08/05 05:53:56;;;;;;;4.37;3.07;;;27.80;99.90;;;;;;5055408;28;21079;-78
2022/08/05 05:56:28;;;;;;;3.00;2.60;;;27.80;99.90;;;;;;5056656;28;20530;-77
2022/08/05 05:59:01;;;;;;;3.50;3.20;;;27.80;99.90;;;;;;5059335;28;20493;-77
2022/08/05 06:01:33;;;;;;;3.00;2.80;;;27.90;99.90;;;;;;5059281;28;20573;-78
2022/08/05 06:04:06;;;;;;;2.97;2.67;;;27.90;99.90;;;;;;5057135;28;20459;-77
2022/08/05 06:06:39;;;;;;;2.97;2.77;;;27.90;99.90;;;;;;5057231;28;20454;-78
2022/08/05 06:09:11;;;;;;;3.23;3.00;;;27.90;99.90;;;;;;5057576;28;21008;-77
2022/08/05 06:11:53;;;;;;;5.37;2.70;;;28.00;99.90;;;;;;5060602;28;20462;-78
2022/08/05 06:14:29;;;;;;;3.67;2.73;;;28.10;99.90;;;;;;5056221;28;20551;-77
2022/08/05 06:16:57;;;;;;;3.57;3.27;;;28.10;99.90;;;;;;5056113;28;21071;-77
2022/08/05 06:19:26;;;;;;;4.20;3.67;;;28.10;99.90;;;;;;5060010;28;20474;-77
2022/08/05 06:22:02;;;;;;;7.47;3.50;;;28.20;99.90;;;;;;5057078;28;20546;-78
2022/08/05 06:24:32;;;;;;;2.90;2.70;;;28.20;99.90;;;;;;5060743;28;20458;-77
2022/08/05 06:27:02;;;;;;;3.80;2.93;;;28.20;99.90;;;;;;5056733;28;20533;-76
2022/08/05 06:29:31;;;;;;;3.00;2.80;;;28.20;99.90;;;;;;5058926;28;20506;-77
2022/08/05 06:32:19;;;;;;;3.30;2.63;;;28.20;99.90;;;;;;5062421;28;20544;-77
2022/08/05 06:34:53;;;;;;;3.43;2.83;;;28.20;99.90;;;;;;5060036;28;20528;-77
2022/08/05 06:37:25;;;;;;;2.97;2.77;;;28.30;99.90;;;;;;5056537;28;20447;-77
2022/08/05 06:40:15;;;;;;;4.40;2.37;;;28.30;99.90;;;;;;5058342;28;20520;-77
2022/08/05 06:42:49;;;;;;;3.17;2.80;;;28.40;99.90;;;;;;5057596;28;20459;-77
2022/08/05 06:45:20;;;;;;;3.13;2.83;;;28.50;99.90;;;;;;5056302;28;20458;-77
2022/08/05 06:48:09;;;;;;;3.57;2.50;;;28.50;99.90;;;;;;5053802;28;20532;-77
2022/08/05 06:50:57;;;;;;;3.17;2.13;;;28.50;99.90;;;;;;5057674;28;21010;-77
2022/08/05 06:53:27;;;;;;;2.17;2.07;;;28.60;99.90;;;;;;5055096;28;20454;-77
2022/08/05 06:56:02;;;;;;;2.63;2.43;;;28.70;99.90;;;;;;5055088;28;20471;-78
2022/08/05 06:58:30;;;;;;;2.33;2.13;;;28.80;99.90;;;;;;5060828;28;20521;-78
2022/08/05 07:01:05;;;;;;;2.37;2.13;;;28.90;99.90;;;;;;5088252;28;20497;-80
2022/08/05 07:03:34;;;;;;;2.60;1.90;;;28.90;99.90;;;;;;5058161;28;20443;-78
2022/08/05 07:06:04;;;;;;;2.40;2.20;;;29.00;99.90;;;;;;5049761;28;20462;-78
2022/08/05 07:08:40;;;;;;;1.73;1.63;;;29.00;99.90;;;;;;5061170;28;20484;-77
2022/08/05 07:11:11;;;;;;;1.70;1.60;;;29.10;99.90;;;;;;5057268;28;20470;-78
2022/08/05 07:19:35;;;;;;;1.40;1.30;;;29.30;99.90;;;;;;5054927;28;20481;-77
2022/08/05 07:22:23;;;;;;;1.53;1.43;;;29.30;99.90;;;;;;5054597;28;20454;-78
2022/08/05 07:24:58;;;;;;;1.97;1.70;;;29.40;99.90;;;;;;5058219;28;20454;-77
2022/08/05 07:27:48;;;;;;;1.50;1.40;;;29.40;99.90;;;;;;5056828;28;20520;-78
2022/08/05 07:30:31;;;;;;;1.80;1.70;;;29.40;99.90;;;;;;5058769;28;21070;-78
2022/08/05 07:33:02;;;;;;;2.07;1.97;;;29.40;99.90;;;;;;5053698;28;20518;-78
2022/08/05 07:35:37;;;;;;;2.10;1.40;;;29.40;99.90;;;;;;5049979;28;20450;-78
2022/08/05 07:38:26;;;;;;;1.30;1.20;;;29.50;99.90;;;;;;5055195;28;21218;-77
2022/08/05 07:41:04;;;;;;;1.40;1.30;;;29.50;99.90;;;;;;5057778;28;20478;-78
2022/08/05 07:43:55;;;;;;;1.33;1.23;;;29.50;99.90;;;;;;5057696;28;20450;-77
2022/08/05 07:46:25;;;;;;;2.23;1.50;;;29.50;99.90;;;;;;5055588;28;20470;-78
2022/08/05 07:48:55;;;;;;;1.33;1.23;;;29.50;99.90;;;;;;5055333;28;20447;-77
2022/08/05 07:51:36;;;;;;;1.73;1.23;;;29.50;99.90;;;;;;5056141;28;20569;-77
2022/08/05 07:54:09;;;;;;;1.43;1.33;;;29.50;99.90;;;;;;5056267;28;20526;-77
2022/08/05 07:56:39;;;;;;;1.60;1.20;;;29.60;99.90;;;;;;5053926;28;20455;-78
2022/08/05 07:59:29;;;;;;;2.20;1.20;;;29.60;99.90;;;;;;5054125;28;20819;-79
2022/08/05 08:02:09;;;;;;;1.50;1.40;;;29.60;99.90;;;;;;5057839;28;21213;-77
2022/08/05 08:04:45;;;;;;;1.27;1.17;;;29.60;99.90;;;;;;5052781;28;20468;-78
2022/08/05 08:07:13;;;;;;;1.30;1.20;;;29.60;99.80;;;;;;5054278;28;20466;-77
2022/08/05 08:09:42;;;;;;;3.03;1.50;;;29.60;99.90;;;;;;5055395;28;20474;-77
2022/08/05 08:12:12;;;;;;;1.47;1.00;;;29.70;99.90;;;;;;5057340;28;20901;-77
2022/08/05 08:15:02;;;;;;;1.40;1.30;;;29.70;99.90;;;;;;5055936;28;20467;-77
2022/08/05 08:17:32;;;;;;;2.27;1.40;;;29.70;99.90;;;;;;5053394;28;20467;-77
2022/08/05 08:20:04;;;;;;;2.20;1.67;;;29.70;99.90;;;;;;5051589;28;20481;-76
2022/08/05 08:22:53;;;;;;;1.50;1.40;;;29.80;99.90;;;;;;5051084;28;20469;-76
2022/08/05 08:25:23;;;;;;;1.47;1.37;;;29.80;99.90;;;;;;5053822;28;20463;-77
2022/08/05 08:28:11;;;;;;;1.70;1.60;;;29.80;99.90;;;;;;5054745;28;20514;-76
2022/08/05 08:31:01;;;;;;;1.50;1.40;;;29.80;99.90;;;;;;5055564;28;21057;-76
2022/08/05 08:33:31;;;;;;;1.30;1.20;;;29.80;99.90;;;;;;5055349;28;20455;-77
2022/08/05 08:36:06;;;;;;;1.83;1.30;;;29.90;99.90;;;;;;5056365;28;20446;-77
2022/08/05 08:38:54;;;;;;;1.50;1.40;;;29.90;99.90;;;;;;5052737;28;20498;-76
2022/08/05 08:41:26;;;;;;;1.10;1.10;;;29.90;99.90;;;;;;5069175;28;20504;-78
2022/08/05 08:44:15;;;;;;;1.47;1.27;;;30.00;99.90;;;;;;5055917;28;20562;-76
2022/08/05 08:47:06;;;;;;;1.20;1.10;;;30.00;99.90;;;;;;5053178;28;20505;-77
2022/08/05 08:49:57;;;;;;;1.43;1.27;;;30.00;99.90;;;;;;5057790;28;21093;-77
2022/08/05 08:52:50;;;;;;;1.17;1.07;;;30.00;99.90;;;;;;5058667;28;21241;-77
2022/08/05 08:55:20;;;;;;;1.17;1.17;;;30.00;99.90;;;;;;5052198;28;20451;-77
2022/08/05 08:58:10;;;;;;;1.40;1.30;;;30.00;99.90;;;;;;5054673;28;20507;-77
2022/08/05 09:00:41;;;;;;;1.90;1.30;;;30.00;99.90;;;;;;5057090;28;20482;-77
2022/08/05 09:03:11;;;;;;;1.30;1.20;;;30.10;99.90;;;;;;5055610;28;20825;-77
2022/08/05 09:05:47;;;;;;;1.70;1.47;;;30.10;99.90;;;;;;5057493;28;20461;-77
2022/08/05 09:08:35;;;;;;;1.27;1.17;;;30.10;99.90;;;;;;5057218;28;21064;-77
2022/08/05 09:11:07;;;;;;;1.57;1.47;;;30.10;99.90;;;;;;5057796;28;20509;-77
2022/08/05 09:13:41;;;;;;;1.80;1.40;;;30.10;99.90;;;;;;5061425;28;20965;-77
2022/08/05 09:16:30;;;;;;;1.30;1.20;;;30.10;99.90;;;;;;5057785;28;20446;-77
2022/08/05 09:19:00;;;;;;;1.10;1.00;;;30.20;99.90;;;;;;5060359;28;20454;-76
2022/08/05 09:21:34;;;;;;;1.30;1.20;;;30.20;99.90;;;;;;5059018;28;20477;-76
2022/08/05 09:24:22;;;;;;;2.53;1.33;;;30.20;99.90;;;;;;5059195;28;20454;-77
2022/08/05 09:26:54;;;;;;;1.30;1.20;;;30.20;99.90;;;;;;5061635;28;20538;-80
2022/08/05 09:29:38;;;;;;;1.37;1.27;;;30.20;99.90;;;;;;5063297;28;20478;-79
2022/08/05 09:32:17;;;;;;;1.40;1.30;;;30.30;99.90;;;;;;5059153;28;21104;-80
2022/08/05 09:35:15;;;;;;;2.30;1.30;;;30.30;99.90;;;;;;5056418;28;20459;-81
2022/08/05 09:37:56;;;;;;;1.20;1.20;;;30.40;99.90;;;;;;5059318;28;20463;-81
2022/08/05 09:40:44;;;;;;;1.20;1.10;;;30.40;98.70;;;;;;5059113;28;20523;-80
2022/08/05 09:43:28;;;;;;;1.30;1.20;;;30.40;99.90;;;;;;5059634;28;20438;-79
2022/08/05 09:46:23;;;;;;;1.20;1.10;;;30.40;98.80;;;;;;5057567;28;20563;-79
2022/08/05 09:48:56;;;;;;;1.40;1.30;;;30.50;98.70;;;;;;5062668;28;20455;-80
2022/08/05 09:51:40;;;;;;;1.20;1.10;;;30.50;99.60;;;;;;5057132;28;20963;-81
2022/08/05 09:54:10;;;;;;;1.30;1.20;;;30.60;99.00;;;;;;5073036;28;20497;-80
2022/08/05 09:56:39;;;;;;;1.10;1.10;;;30.60;99.90;;;;;;5059498;28;20503;-80
2022/08/05 09:59:18;;;;;;;1.30;1.20;;;30.60;99.80;;;;;;5057003;28;20563;-79
2022/08/05 10:01:47;;;;;;;1.17;1.10;;;30.70;99.30;;;;;;5060575;28;20998;-81
2022/08/05 10:04:35;;;;;;;1.27;1.17;;;30.70;99.90;;;;;;5058465;28;20458;-80
2022/08/05 10:07:07;;;;;;;1.00;1.00;;;30.80;97.60;;;;;;5062603;28;20454;-80
2022/08/05 10:09:56;;;;;;;1.20;1.10;;;30.80;99.20;;;;;;5059861;28;20552;-81
2022/08/05 10:12:47;;;;;;;1.67;1.57;;;30.70;96.80;;;;;;5060258;28;20451;-80
2022/08/05 10:15:26;;;;;;;1.17;1.10;;;30.70;96.70;;;;;;5059586;28;20843;-80
2022/08/05 10:18:13;;;;;;;1.20;1.10;;;30.80;97.70;;;;;;5089773;28;20463;-81
2022/08/05 10:20:47;;;;;;;1.10;1.10;;;30.80;98.00;;;;;;5061293;28;20842;-80
2022/08/05 10:23:19;;;;;;;1.50;1.30;;;30.90;99.40;;;;;;5062027;28;20462;-80
2022/08/05 10:26:11;;;;;;;1.50;1.17;;;30.90;98.00;;;;;;5059997;28;20584;-81
2022/08/05 10:28:42;;;;;;;1.30;1.10;;;31.00;99.10;;;;;;5060021;28;20481;-80
2022/08/05 10:31:13;;;;;;;1.50;1.40;;;31.00;98.40;;;;;;5058286;28;20478;-80
2022/08/05 10:34:02;;;;;;;1.30;1.20;;;31.10;98.40;;;;;;5058389;28;20462;-81
2022/08/05 10:36:30;;;;;;;1.37;1.27;;;31.20;98.30;;;;;;5060444;28;20461;-80
2022/08/05 10:39:05;;;;;;;1.53;1.10;;;31.20;98.80;;;;;;5059505;28;20455;-81
2022/08/05 10:41:47;;;;;;;1.53;1.20;;;31.10;98.70;;;;;;5059314;28;20589;-80
2022/08/05 10:44:20;;;;;;;1.20;1.10;;;31.20;98.20;;;;;;5060232;28;20497;-80
2022/08/05 10:46:49;;;;;;;1.37;1.27;;;31.20;99.30;;;;;;5061623;28;20454;-81
2022/08/05 10:49:23;;;;;;;1.50;1.40;;;31.20;99.90;;;;;;5059964;28;20502;-80
2022/08/05 10:52:01;;;;;;;1.20;1.10;;;31.20;98.60;;;;;;5060341;28;20478;-81
2022/08/05 10:55:01;;;;;;;1.43;1.20;;;31.20;98.90;;;;;;5059879;28;20471;-81
2022/08/05 10:57:31;;;;;;;1.43;1.20;;;31.30;99.00;;;;;;5058315;28;20458;-81
2022/08/05 11:00:12;;;;;;;1.60;1.30;;;31.30;99.90;;;;;;5058275;28;20470;-79
2022/08/05 11:03:10;;;;;;;2.73;1.30;;;31.40;98.60;;;;;;5058586;28;20498;-80
2022/08/05 11:06:15;;;;;;;1.23;1.13;;;31.40;98.90;;;;;;5058326;28;20450;-80
2022/08/05 11:09:27;;;;;;;1.50;1.40;;;31.40;98.90;;;;;;5059153;28;20502;-78
2022/08/05 11:12:45;;;;;;;2.60;1.10;;;31.50;98.80;;;;;;5052971;28;20465;-80
2022/08/05 11:15:26;;;;;;;1.37;1.10;;;31.40;97.80;;;;;;5054905;28;21057;-80
2022/08/05 11:18:26;;;;;;;2.10;1.70;;;31.40;97.80;;;;;;5059419;28;21087;-80
2022/08/05 11:20:57;;;;;;;1.40;1.30;;;31.40;97.00;;;;;;5056228;28;20462;-80
2022/08/05 11:23:42;;;;;;;2.40;1.33;;;31.40;96.30;;;;;;5059640;28;20577;-80
2022/08/05 11:26:31;;;;;;;1.10;1.10;;;31.40;97.60;;;;;;5058859;28;20539;-79
2022/08/05 11:29:03;;;;;;;1.47;1.37;;;31.40;98.40;;;;;;5058352;28;20453;-78
2022/08/05 11:31:41;;;;;;;1.30;1.20;;;31.40;96.50;;;;;;5059023;28;20461;-80
2022/08/05 11:34:39;;;;;;;1.20;1.10;;;31.40;96.30;;;;;;5062454;28;20458;-81
2022/08/05 11:37:56;;;;;;;1.30;1.20;;;31.40;98.50;;;;;;5056493;28;20527;-80
2022/08/05 11:40:58;;;;;;;3.37;1.43;;;31.50;97.60;;;;;;5060300;28;20532;-80
2022/08/05 11:43:54;;;;;;;1.47;1.37;;;31.50;96.00;;;;;;5058578;28;20992;-80
2022/08/05 11:46:38;;;;;;;1.50;1.40;;;31.40;95.60;;;;;;5054708;28;20474;-79
2022/08/05 11:49:26;;;;;;;1.27;1.17;;;31.50;96.20;;;;;;5056872;28;20478;-78
2022/08/05 11:51:55;;;;;;;1.70;1.60;;;31.50;96.10;;;;;;5057727;28;20535;-79
2022/08/05 11:54:27;;;;;;;1.30;1.20;;;31.50;96.60;;;;;;5056704;28;20454;-80
2022/08/05 11:57:03;;;;;;;1.60;1.50;;;31.50;95.80;;;;;;5058902;28;20453;-80
2022/08/05 11:59:52;;;;;;;1.67;1.57;;;31.50;96.00;;;;;;5052542;28;21402;-80
2022/08/05 12:02:27;;;;;;;1.43;1.33;;;31.50;97.30;;;;;;5058513;28;20506;-80
2022/08/05 12:05:00;;;;;;;1.13;1.13;;;31.50;96.10;;;;;;5057046;28;20500;-81
2022/08/05 12:07:47;;;;;;;2.13;1.20;;;31.50;97.30;;;;;;5057433;28;20460;-78
2022/08/05 12:10:37;;;;;;;1.50;1.40;;;31.50;97.80;;;;;;5050569;28;20566;-80
2022/08/05 12:13:16;;;;;;;1.50;1.27;;;31.50;97.30;;;;;;5058919;28;20557;-79
2022/08/05 12:16:09;;;;;;;1.50;1.40;;;31.60;97.30;;;;;;5058464;28;20504;-80
2022/08/05 12:18:45;;;;;;;1.67;1.57;;;31.60;96.70;;;;;;5058321;28;20492;-79
2022/08/05 12:21:22;;;;;;;1.63;1.53;;;31.60;97.00;;;;;;5061861;28;21033;-79
2022/08/05 12:24:00;;;;;;;1.50;1.40;;;31.60;95.00;;;;;;5056024;28;20474;-80
2022/08/05 12:26:33;;;;;;;1.60;1.50;;;31.60;95.40;;;;;;5052062;28;20458;-79
2022/08/05 12:29:01;;;;;;;2.13;2.03;;;31.60;95.70;;;;;;5057647;28;20458;-79
2022/08/05 12:31:32;;;;;;;1.80;1.43;;;31.70;95.90;;;;;;5059306;28;20544;-80
2022/08/05 12:34:19;;;;;;;1.60;1.50;;;31.70;96.90;;;;;;5052271;28;20518;-79
2022/08/05 12:36:52;;;;;;;1.80;1.70;;;31.80;99.90;;;;;;5050808;28;20567;-80
2022/08/05 12:39:21;;;;;;;1.53;1.43;;;31.80;99.90;;;;;;5060748;28;20568;-80
2022/08/05 12:41:58;;;;;;;1.57;1.47;;;31.80;97.10;;;;;;5058977;28;20479;-80
2022/08/05 12:44:27;;;;;;;1.60;1.50;;;31.80;97.00;;;;;;5060377;28;21122;-79
2022/08/05 12:47:02;;;;;;;1.80;1.70;;;31.80;97.20;;;;;;5059107;28;20485;-78
2022/08/05 12:49:43;;;;;;;1.63;1.40;;;31.80;97.40;;;;;;5058429;28;20470;-79
2022/08/05 12:52:32;;;;;;;1.80;1.70;;;31.80;98.00;;;;;;5061785;28;20494;-79
2022/08/05 12:55:20;;;;;;;1.80;1.70;;;31.90;98.90;;;;;;5058421;28;20462;-79
2022/08/05 12:57:52;;;;;;;1.70;1.60;;;31.90;98.40;;;;;;5056540;28;20453;-80
2022/08/05 13:00:46;;;;;;;1.60;1.50;;;31.90;98.20;;;;;;5061684;28;20223;-78
2022/08/05 13:03:36;;;;;;;1.70;1.60;;;31.90;97.50;;;;;;5059503;28;20473;-80
2022/08/05 13:06:14;;;;;;;2.30;1.67;;;31.80;96.30;;;;;;5062816;28;20559;-79
2022/08/05 13:08:45;;;;;;;1.77;1.67;;;31.80;96.60;;;;;;5062914;28;20497;-80
2022/08/05 13:11:20;;;;;;;1.77;1.30;;;31.80;95.90;;;;;;5067647;28;20465;-79
2022/08/05 13:14:16;;;;;;;1.73;1.60;;;31.80;97.50;;;;;;5066375;28;20521;-79
2022/08/05 13:16:53;;;;;;;1.60;1.50;;;31.90;98.00;;;;;;5066646;28;20513;-79
2022/08/05 13:19:25;;;;;;;1.43;1.33;;;32.10;99.50;;;;;;5067666;28;20838;-80
2022/08/05 13:21:55;;;;;;;1.33;1.23;;;32.10;99.80;;;;;;5067376;28;20435;-79
2022/08/05 13:24:24;;;;;;;2.07;1.93;;;32.10;99.30;;;;;;5066014;28;20994;-79
2022/08/05 13:27:12;;;;;;;1.50;1.40;;;32.10;99.60;;;;;;5061373;28;21734;-79
2022/08/05 13:30:00;;;;;;;1.80;1.50;;;32.20;99.80;;;;;;5067054;28;20457;-79
2022/08/05 13:32:49;;;;;;;1.60;1.50;;;32.10;98.90;;;;;;5067574;28;21076;-79
2022/08/05 13:35:19;;;;;;;1.60;1.50;;;32.10;99.90;;;;;;5065230;28;20522;-79
2022/08/05 13:38:08;;;;;;;1.60;1.50;;;32.20;98.70;;;;;;5067643;28;20500;-79
2022/08/05 13:40:47;;;;;;;1.60;1.50;;;32.10;97.40;;;;;;5064507;28;20884;-79
2022/08/05 13:43:19;;;;;;;1.60;1.50;;;32.00;97.80;;;;;;5063598;28;20471;-79
2022/08/05 13:45:49;;;;;;;2.50;1.60;;;32.00;98.10;;;;;;5062501;28;20477;-79
2022/08/05 13:48:17;;;;;;;1.40;1.30;;;32.00;98.70;;;;;;5066668;28;20451;-80
2022/08/05 13:51:07;;;;;;;1.57;1.47;;;32.10;99.10;;;;;;5064830;28;20459;-79